Pagrindinis puslapis
METAR-TAF:

METAR-TAF

Oro uostai :

Batervortas, Malaizija

platuma: 05-27-58N, ilguma: 100-23-28E, Aukštis: 2 m

Dabartinis oras

Ataskaita buvo paskelbta 57 minutes, ne 08:00 UTC
Vėjas 8 kt iš Vakarų/Šiaurės Vakarų, svyruoja nuo Vakarų/Pietvakarių ir Šiaurės
Temperatūra 31°C
Drėgmė 63%
Slėgis 1007 hPa
Matomumas: 8000 m
Mažai debesys ne aukštis 2000 ft

METAR: WMKB 240800Z 30008KT 250V360 8000 FEW020 31/23 Q1007 NOSIG

Laikas: 16:57 (08:57 UTC)

Prognozė

Ataskaita buvo paskelbta 3 valandos ir 57 minutes, ne 05:00 UTC
Prognozė galioja nuo 24 metu 06 UTC su 25 metu 06 UTC
Vėjas 7 kt iš Vakarų/Šiaurės Vakarų
Matomumas: 8000 m
Mažai debesys ne aukštis 2000 ft
Tapsmas
nuo 24 metu 12 UTC su 24 metu 14 UTC
Vėjas 3 kt nuo kintamojo kryptimis
Matomumas: 7000 m
Mažai debesys ne aukštis 2400 ft

TAF: WMKB 240500Z 2406/2506 29007KT 8000 FEW020 BECMG 2412/2414 VRB03KT 7000 FEW024

Orai ataskaitas ir orų prognozės (METAR, TAF).

turimą stotys yra geltonos ir raudonos taškus žemėlapyje.

Perkelti pele per norėdami pamatyti stoties vardą.

Tada spustelėkite, norėdami matyti oro stebėjimo ir prognozės.

Norėdami pakeisti žemėlapį: spustelėkite ant žalios mygtukų su juodo kryžiaus žemyn,; žalią mygtuką su brūkšneliu, jei norite nutolinti; arba žalių rodyklių gretimoms žemėlapius.


METAR-TAF: